ベレン の空港の天気 - METARとTAF

ベレン国際空港 ( SBBE / BEL ) - ブラジル パラー州ベレン
飛行場実況気象(Metar)
観測時間10/19 14:00 AMT (10/19 18:00 UTC)
風向・風速北 6m/s
視程10km以上
天気現象
全天の4割程度の雲 雲底高度 1220m
気温30℃
湿度70%
気圧1007hPa
METARSBBE 191800Z 36011KT 9999 SCT040 30/24 Q1007
過去の天気等 Google飛行場航空写真 Wunderground天気予報

過去48時間のMETAR

飛行場予報(TAF)
発表時間: 10/19 12:00 AMT (10/19 16:00 UTC)
予報対象時間: 19日14時 AMT ~ 20日14時 AMT
風向・風速北 5m/s
全天の4割程度の雲 雲底高度 910m
少しの塔状積雲 雲底高度 1070m
19日18時 AMT ~ 19日20時 AMT に徐々に
風向・風速東北東 4m/s
視程10km以上
なし
20日6時 AMT ~ 20日8時 AMT に徐々に
風向・風速東 3m/s
視程10km以上
全天の4割程度の雲 雲底高度 610m
TAF SBBE 191600Z 1918/2018 36010KT SCT030 FEW035TCU TN24/2003Z TX31/2 016Z
BECMG 1922/1924 06008KT CAVOK
BECMG 2010/2012 08005KT 9999 SCT020 BE CMG 2015/2017 14010KT 9999 BKN030 FEW035TCU RMK PEC